createdAt,value
2019-04-21T00:02:37.707Z,10.83
2019-04-21T00:05:57.194Z,10.37
2019-04-21T00:09:09.348Z,10.73
2019-04-21T00:12:02.513Z,9.70
2019-04-21T00:14:55.644Z,9.90
2019-04-21T00:17:52.718Z,9.37
2019-04-21T00:20:56.252Z,9.20
2019-04-21T00:24:25.008Z,10.20
2019-04-21T00:27:32.413Z,8.97
2019-04-21T00:30:41.148Z,9.20
2019-04-21T00:33:27.890Z,9.67
2019-04-21T00:36:29.428Z,15.77
2019-04-21T00:39:55.777Z,11.77
2019-04-21T00:42:43.206Z,13.47
2019-04-21T00:45:42.235Z,11.33
2019-04-21T00:48:53.450Z,11.10
2019-04-21T00:58:26.816Z,11.53
2019-04-21T01:01:19.788Z,17.40
2019-04-21T01:04:23.504Z,19.53
2019-04-21T01:07:31.989Z,16.47
2019-04-21T01:10:33.221Z,13.37
2019-04-21T01:13:51.772Z,11.83
2019-04-21T01:17:03.843Z,11.80
2019-04-21T01:20:01.460Z,13.03
2019-04-21T01:22:58.278Z,13.50
2019-04-21T01:26:18.015Z,13.20
2019-04-21T01:29:44.124Z,12.77
2019-04-21T01:32:51.236Z,11.90
2019-04-21T01:35:54.890Z,12.20
2019-04-21T01:39:11.720Z,13.93
2019-04-21T01:42:18.830Z,12.47
2019-04-21T01:45:27.945Z,14.47
2019-04-21T01:48:33.314Z,13.30
2019-04-21T01:55:36.769Z,13.70
2019-04-21T02:05:06.516Z,12.80
2019-04-21T02:08:09.700Z,12.97
2019-04-21T02:11:17.552Z,13.10
2019-04-21T02:14:31.182Z,11.63
2019-04-21T02:17:34.244Z,11.20
2019-04-21T02:20:35.557Z,12.30
2019-04-21T02:23:52.951Z,11.83
2019-04-21T02:26:46.707Z,12.20
2019-04-21T02:29:48.664Z,11.83
2019-04-21T02:33:19.651Z,26.20
2019-04-21T02:36:20.675Z,15.90
2019-04-21T02:42:15.783Z,11.77
2019-04-21T02:45:12.859Z,12.40
2019-04-21T02:48:22.497Z,12.50
2019-04-21T02:51:19.611Z,12.13
2019-04-21T02:54:40.627Z,11.50
2019-04-21T03:07:09.401Z,11.13
2019-04-21T03:10:00.086Z,11.70
2019-04-21T03:16:17.130Z,11.17
2019-04-21T03:19:15.348Z,11.30
2019-04-21T03:22:20.734Z,11.50
2019-04-21T03:25:30.369Z,10.90
2019-04-21T03:28:22.638Z,11.73
2019-04-21T03:34:57.541Z,11.73
2019-04-21T03:37:35.426Z,12.13
2019-04-21T03:40:32.955Z,11.90
2019-04-21T03:47:04.397Z,12.20
2019-04-21T03:50:16.278Z,11.67
2019-04-21T03:53:18.637Z,10.60
2019-04-21T03:56:52.242Z,10.90
2019-04-21T03:59:38.207Z,11.43
2019-04-21T04:03:28.383Z,10.47
2019-04-21T04:06:33.983Z,10.83
2019-04-21T04:13:23.467Z,12.67
2019-04-21T04:19:26.372Z,12.43
2019-04-21T04:37:38.371Z,12.17
2019-04-21T04:44:31.434Z,11.67
2019-04-21T04:47:20.287Z,10.93
2019-04-21T04:50:22.025Z,11.33
2019-04-21T04:53:40.612Z,12.07
2019-04-21T04:56:29.142Z,12.40
2019-04-21T04:59:43.095Z,11.53
2019-04-21T05:02:48.948Z,11.40
2019-04-21T05:06:37.410Z,12.93
2019-04-21T05:09:27.074Z,12.70
2019-04-21T05:15:41.687Z,12.80
2019-04-21T05:19:03.818Z,13.70
2019-04-21T05:21:55.370Z,13.87
2019-04-21T05:24:49.382Z,15.03
2019-04-21T05:27:47.287Z,18.03
2019-04-21T05:34:26.963Z,21.53
2019-04-21T05:40:28.733Z,18.03
2019-04-21T05:43:51.379Z,17.30
2019-04-21T05:46:46.782Z,15.97
2019-04-21T05:52:53.594Z,13.60
2019-04-21T05:56:06.193Z,13.50
2019-04-21T05:59:03.467Z,13.70
2019-04-21T06:02:20.889Z,13.83
2019-04-21T06:05:23.128Z,13.53
2019-04-21T06:08:17.954Z,13.60
2019-04-21T06:11:17.890Z,12.00
2019-04-21T06:14:20.256Z,11.67
2019-04-21T06:17:29.779Z,12.40
2019-04-21T06:20:28.794Z,12.73
2019-04-21T06:23:30.097Z,12.37
2019-04-21T06:26:50.409Z,12.53
2019-04-21T06:29:42.087Z,11.90
2019-04-21T06:32:46.810Z,12.17
2019-04-21T06:39:31.811Z,11.53
2019-04-21T06:42:13.526Z,12.13
2019-04-21T06:45:31.460Z,12.23
2019-04-21T06:48:26.195Z,12.17
2019-04-21T06:51:27.204Z,12.73
2019-04-21T06:57:35.454Z,12.83
2019-04-21T07:00:33.095Z,12.03
2019-04-21T07:03:45.562Z,13.50
2019-04-21T07:06:45.706Z,13.00
2019-04-21T07:09:46.682Z,12.83
2019-04-21T07:12:49.728Z,12.80
2019-04-21T07:15:52.997Z,12.73
2019-04-21T07:19:01.377Z,12.70
2019-04-21T07:21:51.308Z,12.43
2019-04-21T07:24:58.977Z,13.30
2019-04-21T07:28:01.189Z,13.13
2019-04-21T07:31:03.743Z,12.73
2019-04-21T07:34:07.826Z,12.97
2019-04-21T07:37:06.000Z,13.33
2019-04-21T07:40:05.171Z,12.90
2019-04-21T07:43:05.554Z,12.43
2019-04-21T07:46:06.473Z,12.77
2019-04-21T07:49:41.548Z,12.97
2019-04-21T07:52:49.012Z,13.03
2019-04-21T07:58:58.277Z,12.43
2019-04-21T08:02:02.381Z,12.43
2019-04-21T08:08:21.122Z,13.77
2019-04-21T08:11:28.129Z,12.83
2019-04-21T08:14:48.275Z,12.23
2019-04-21T08:17:56.646Z,12.90
2019-04-21T08:20:54.438Z,12.50
2019-04-21T08:23:41.585Z,12.53
2019-04-21T08:27:00.163Z,12.60
2019-04-21T08:30:09.025Z,12.43
2019-04-21T08:36:30.932Z,12.50
2019-04-21T08:39:37.314Z,12.10
2019-04-21T08:42:46.681Z,12.80
2019-04-21T08:45:52.755Z,11.30
2019-04-21T08:52:09.854Z,12.23
2019-04-21T08:55:31.823Z,13.77
2019-04-21T08:59:03.776Z,12.10
2019-04-21T09:02:31.855Z,12.23
2019-04-21T09:05:37.730Z,12.67
2019-04-21T09:08:47.514Z,11.10
2019-04-21T09:11:59.656Z,11.30
2019-04-21T09:15:21.649Z,11.67
2019-04-21T09:18:15.757Z,10.93
2019-04-21T09:21:19.471Z,11.20
2019-04-21T09:24:22.249Z,11.07
2019-04-21T09:27:20.641Z,11.03
2019-04-21T09:30:10.798Z,10.07
2019-04-21T09:33:11.652Z,9.63
2019-04-21T09:36:15.448Z,8.83
2019-04-21T09:39:20.088Z,10.00
2019-04-21T09:42:19.799Z,9.97
2019-04-21T09:45:22.541Z,9.87
2019-04-21T09:48:25.877Z,10.47
2019-04-21T09:51:25.992Z,10.17
2019-04-21T09:54:30.919Z,10.90
2019-04-21T09:57:40.660Z,11.37
2019-04-21T10:00:43.498Z,12.17
2019-04-21T10:03:41.313Z,10.43
2019-04-21T10:06:43.133Z,10.57
2019-04-21T10:09:52.516Z,9.73
2019-04-21T10:13:02.891Z,9.43
2019-04-21T10:16:32.048Z,8.97
2019-04-21T10:19:41.886Z,8.57
2019-04-21T10:22:42.773Z,8.53
2019-04-21T10:25:43.481Z,8.77
2019-04-21T10:28:44.325Z,8.67
2019-04-21T10:31:45.257Z,8.70
2019-04-21T10:34:47.410Z,8.57
2019-04-21T10:38:01.294Z,8.07
2019-04-21T10:40:51.757Z,8.17
2019-04-21T10:43:41.010Z,7.07
2019-04-21T10:46:52.141Z,7.33
2019-04-21T10:50:00.474Z,7.53
2019-04-21T10:56:44.067Z,7.63
2019-04-21T10:59:54.075Z,7.40
2019-04-21T11:03:20.778Z,7.60
2019-04-21T11:09:42.355Z,8.63
2019-04-21T11:12:52.663Z,8.03
2019-04-21T11:16:01.558Z,8.10
2019-04-21T11:19:09.595Z,8.60
2019-04-21T11:22:10.630Z,9.07
2019-04-21T11:25:12.761Z,8.17
2019-04-21T11:28:14.452Z,8.03
2019-04-21T11:31:15.225Z,8.37
2019-04-21T11:34:23.557Z,7.93
2019-04-21T11:40:47.551Z,8.50
2019-04-21T11:43:57.221Z,8.60
2019-04-21T11:50:23.261Z,8.50
2019-04-21T11:53:32.877Z,8.10
2019-04-21T11:56:43.096Z,9.23
2019-04-21T11:59:51.458Z,9.40
2019-04-21T12:02:59.603Z,8.50
2019-04-21T12:06:09.046Z,8.10
2019-04-21T12:09:18.839Z,7.90
2019-04-21T12:12:27.516Z,8.60
2019-04-21T12:15:36.940Z,8.07
2019-04-21T12:18:45.151Z,7.67
2019-04-21T12:22:00.393Z,8.60
2019-04-21T12:24:51.287Z,7.50
2019-04-21T12:27:52.353Z,8.40
2019-04-21T12:30:53.906Z,7.87
2019-04-21T12:33:58.165Z,7.27
2019-04-21T12:36:59.109Z,7.73
2019-04-21T12:40:00.844Z,8.17
2019-04-21T12:43:02.890Z,7.63
2019-04-21T12:46:04.200Z,7.47
2019-04-21T12:49:05.547Z,7.00
2019-04-21T12:52:06.418Z,7.40
2019-04-21T12:55:07.350Z,6.93
2019-04-21T12:58:08.381Z,7.73
2019-04-21T13:01:09.375Z,6.63
2019-04-21T13:04:10.353Z,7.23
2019-04-21T13:07:10.962Z,7.57
2019-04-21T13:10:12.716Z,7.77
2019-04-21T13:13:14.353Z,8.17
2019-04-21T13:16:15.640Z,8.27
2019-04-21T13:19:17.387Z,8.50
2019-04-21T13:22:18.546Z,7.37
2019-04-21T13:25:20.092Z,8.10
2019-04-21T13:28:20.825Z,8.80
2019-04-21T13:31:22.347Z,7.83
2019-04-21T13:34:24.111Z,8.10
2019-04-21T13:37:25.648Z,8.43
2019-04-21T13:41:02.437Z,8.90
2019-04-21T13:43:50.768Z,8.00
2019-04-21T13:46:52.524Z,9.10
2019-04-21T13:49:55.950Z,8.83
2019-04-21T13:52:56.556Z,8.20
2019-04-21T13:55:58.508Z,8.37
2019-04-21T13:59:00.026Z,7.27
2019-04-21T14:02:00.372Z,8.23
2019-04-21T14:05:11.808Z,7.73
2019-04-21T14:08:18.897Z,7.30
2019-04-21T14:11:29.291Z,7.30
2019-04-21T14:14:38.617Z,7.83
2019-04-21T14:17:48.992Z,7.23
2019-04-21T14:20:51.251Z,7.13
2019-04-21T14:23:54.135Z,8.23
2019-04-21T14:26:56.192Z,6.90
2019-04-21T14:29:57.687Z,7.67
2019-04-21T14:32:58.463Z,6.87
2019-04-21T14:35:59.154Z,6.80
2019-04-21T14:39:00.648Z,7.40
2019-04-21T14:42:02.285Z,6.67
2019-04-21T14:45:03.290Z,7.10
2019-04-21T14:48:23.263Z,7.00
2019-04-21T14:51:45.400Z,7.60
2019-04-21T14:54:56.315Z,7.57
2019-04-21T14:57:57.478Z,6.90
2019-04-21T15:00:58.122Z,7.27
2019-04-21T15:03:59.785Z,7.07
2019-04-21T15:07:01.355Z,7.00
2019-04-21T15:10:10.908Z,7.30
2019-04-21T15:13:05.695Z,7.77
2019-04-21T15:16:06.872Z,7.70
2019-04-21T15:19:08.634Z,8.17
2019-04-21T15:22:10.267Z,7.43
2019-04-21T15:25:12.015Z,7.50
2019-04-21T15:28:13.791Z,7.23
2019-04-21T15:31:23.085Z,7.67
2019-04-21T15:34:17.658Z,7.87
2019-04-21T15:37:18.221Z,8.03
2019-04-21T15:40:30.236Z,7.70
2019-04-21T15:43:22.406Z,7.60
2019-04-21T15:46:24.709Z,8.13
2019-04-21T15:49:40.539Z,8.23
2019-04-21T15:52:31.839Z,8.63
2019-04-21T15:59:22.084Z,7.43
2019-04-21T16:02:42.525Z,7.50
2019-04-21T16:05:44.527Z,7.73
2019-04-21T16:08:49.652Z,8.50
2019-04-21T16:11:49.703Z,9.30
2019-04-21T16:14:50.288Z,8.93
2019-04-21T16:17:59.372Z,7.47
2019-04-21T16:21:02.062Z,8.57
2019-04-21T16:24:04.487Z,8.23
2019-04-21T16:27:08.692Z,8.73
2019-04-21T16:30:09.927Z,7.53
2019-04-21T16:32:59.876Z,8.37
2019-04-21T16:36:11.468Z,7.97
2019-04-21T16:39:19.626Z,7.43
2019-04-21T16:42:28.101Z,7.03
2019-04-21T16:45:37.005Z,8.10
2019-04-21T16:48:46.037Z,7.33
2019-04-21T16:52:16.112Z,6.57
2019-04-21T16:55:44.879Z,6.40
2019-04-21T16:58:57.161Z,7.00
2019-04-21T17:02:05.176Z,6.50
2019-04-21T17:05:14.377Z,6.73
2019-04-21T17:08:24.011Z,6.67
2019-04-21T17:11:35.350Z,6.77
2019-04-21T17:14:57.135Z,6.30
2019-04-21T17:18:10.377Z,5.93
2019-04-21T17:20:58.899Z,5.97
2019-04-21T17:23:58.708Z,6.53
2019-04-21T17:26:59.974Z,6.50
2019-04-21T17:30:01.203Z,7.17
2019-04-21T17:33:03.564Z,6.30
2019-04-21T17:36:04.951Z,6.53
2019-04-21T17:39:06.844Z,6.83
2019-04-21T17:42:18.537Z,6.00
2019-04-21T17:45:17.174Z,6.23
2019-04-21T17:48:27.144Z,6.17
2019-04-21T17:55:27.192Z,6.03
2019-04-21T18:02:21.289Z,7.53
2019-04-21T18:05:29.446Z,6.77
2019-04-21T18:08:36.357Z,6.97
2019-04-21T18:11:46.584Z,6.50
2019-04-21T18:14:55.519Z,6.87
2019-04-21T18:17:52.397Z,7.70
2019-04-21T18:27:21.932Z,7.73
2019-04-21T18:34:13.798Z,7.50
2019-04-21T18:40:55.814Z,7.40
2019-04-21T18:50:50.981Z,7.60
2019-04-21T18:54:28.929Z,8.60
2019-04-21T18:57:33.103Z,8.30
2019-04-21T19:04:17.746Z,8.07
2019-04-21T19:07:19.877Z,8.00
2019-04-21T19:10:40.663Z,8.40
2019-04-21T19:14:23.556Z,7.90
2019-04-21T19:20:26.135Z,7.97
2019-04-21T19:23:41.719Z,7.73
2019-04-21T19:26:42.407Z,7.47
2019-04-21T19:29:35.414Z,9.47
2019-04-21T19:32:25.616Z,9.67
2019-04-21T19:35:19.413Z,10.30
2019-04-21T19:38:32.808Z,10.10
2019-04-21T19:41:50.755Z,10.50
2019-04-21T19:45:05.646Z,9.80
2019-04-21T19:48:12.286Z,10.47
2019-04-21T19:51:22.018Z,9.87
2019-04-21T19:54:25.212Z,10.03
2019-04-21T19:57:07.219Z,10.13
2019-04-21T20:00:17.155Z,10.50
2019-04-21T20:06:51.844Z,10.37
2019-04-21T20:10:18.711Z,10.43
2019-04-21T20:12:56.895Z,9.47
2019-04-21T20:16:06.808Z,9.47
2019-04-21T20:19:02.956Z,9.13
2019-04-21T20:22:01.117Z,8.40
2019-04-21T20:25:08.261Z,9.10
2019-04-21T20:28:13.289Z,9.40
2019-04-21T20:31:23.664Z,9.20
2019-04-21T20:34:33.604Z,8.23
2019-04-21T20:37:32.072Z,8.90
2019-04-21T20:40:25.005Z,7.80
2019-04-21T20:43:36.496Z,7.90
2019-04-21T20:46:41.375Z,7.50
2019-04-21T20:49:33.585Z,8.80
2019-04-21T20:52:54.074Z,9.33
2019-04-21T20:55:54.258Z,11.43
2019-04-21T20:59:07.768Z,12.10
2019-04-21T21:02:19.024Z,11.37
2019-04-21T21:05:24.776Z,11.43
2019-04-21T21:08:43.444Z,11.43
2019-04-21T21:11:56.763Z,11.07
2019-04-21T21:14:48.965Z,10.70
2019-04-21T21:18:15.634Z,10.33
2019-04-21T21:21:15.154Z,9.67
2019-04-21T21:24:33.166Z,9.70
2019-04-21T21:27:35.116Z,8.77
2019-04-21T21:30:37.534Z,9.50
2019-04-21T21:37:16.083Z,10.63
2019-04-21T21:39:57.131Z,12.07
2019-04-21T21:42:49.374Z,11.70
2019-04-21T21:46:01.598Z,11.67
2019-04-21T21:49:26.334Z,12.73
2019-04-21T21:52:34.369Z,12.87
2019-04-21T21:55:27.780Z,11.80
2019-04-21T21:58:42.179Z,11.57
2019-04-21T22:01:51.844Z,10.37
2019-04-21T22:05:06.689Z,9.23
2019-04-21T22:08:06.818Z,7.60
2019-04-21T22:11:16.257Z,7.97
2019-04-21T22:14:32.655Z,7.47
2019-04-21T22:17:49.622Z,8.17
2019-04-21T22:20:59.104Z,7.53
2019-04-21T22:23:56.912Z,7.50
2019-04-21T22:26:36.988Z,7.23
2019-04-21T22:29:51.452Z,7.13
2019-04-21T22:33:02.404Z,7.13
2019-04-21T22:36:21.046Z,6.93
2019-04-21T22:39:36.159Z,7.60
2019-04-21T22:42:29.593Z,6.87
2019-04-21T22:45:35.683Z,7.00
2019-04-21T22:48:52.087Z,6.73
2019-04-21T22:51:55.703Z,6.70
2019-04-21T22:55:11.905Z,7.10
2019-04-21T22:58:15.882Z,6.97
2019-04-21T23:01:33.401Z,6.50
2019-04-21T23:04:15.925Z,6.23
2019-04-21T23:07:26.144Z,6.07
2019-04-21T23:10:34.952Z,6.60
2019-04-21T23:13:45.124Z,6.47
2019-04-21T23:20:47.965Z,6.03
2019-04-21T23:23:53.164Z,6.80
2019-04-21T23:26:37.587Z,6.70
2019-04-21T23:30:11.701Z,6.60
2019-04-21T23:32:50.476Z,6.70
2019-04-21T23:35:49.528Z,6.30
2019-04-21T23:42:32.422Z,5.90
2019-04-21T23:45:39.239Z,6.77
2019-04-21T23:48:36.511Z,6.70
2019-04-21T23:51:45.178Z,6.20
2019-04-21T23:54:45.457Z,5.70
2019-04-21T23:58:05.003Z,7.13
